createdAt,value
2022-10-10T00:02:11.771Z,78.17
2022-10-10T00:04:33.237Z,78.38
2022-10-10T00:06:54.723Z,78.28
2022-10-10T00:09:16.192Z,77.86
2022-10-10T00:11:37.680Z,77.96
2022-10-10T00:13:59.330Z,77.54
2022-10-10T00:16:21.177Z,77.22
2022-10-10T00:18:43.188Z,77.93
2022-10-10T00:21:05.015Z,77.72
2022-10-10T00:23:26.609Z,77.30
2022-10-10T00:25:49.617Z,80.19
2022-10-10T00:28:12.454Z,79.46
2022-10-10T00:30:34.010Z,78.35
2022-10-10T00:32:55.501Z,81.11
2022-10-10T00:35:17.183Z,79.61
2022-10-10T00:37:38.780Z,80.05
2022-10-10T00:40:00.276Z,80.59
2022-10-10T00:42:21.761Z,79.58
2022-10-10T00:44:45.587Z,82.34
2022-10-10T00:47:07.481Z,80.60
2022-10-10T00:49:29.949Z,83.89
2022-10-10T00:51:54.712Z,81.12
2022-10-10T00:54:19.785Z,84.79
2022-10-10T00:56:55.524Z,82.38
2022-10-10T00:59:18.730Z,84.24
2022-10-10T01:01:41.541Z,83.34
2022-10-10T01:04:03.906Z,82.69
2022-10-10T01:06:25.495Z,83.29
2022-10-10T01:08:47.059Z,82.62
2022-10-10T01:11:38.098Z,82.37
2022-10-10T01:14:02.587Z,82.88
2022-10-10T01:16:42.322Z,83.95
2022-10-10T01:19:19.110Z,86.17
2022-10-10T01:22:01.509Z,84.85
2022-10-10T01:24:44.265Z,86.52
2022-10-10T01:27:05.722Z,84.98
2022-10-10T01:29:33.101Z,84.83
2022-10-10T01:31:56.737Z,84.44
2022-10-10T01:34:27.277Z,88.00
2022-10-10T01:37:10.391Z,87.42
2022-10-10T01:39:38.163Z,85.49
2022-10-10T01:42:10.343Z,84.80
2022-10-10T01:44:31.880Z,85.62
2022-10-10T01:46:53.338Z,87.24
2022-10-10T01:49:15.008Z,86.07
2022-10-10T01:51:54.031Z,85.69
2022-10-10T01:54:36.278Z,84.77
2022-10-10T01:57:38.855Z,86.04
2022-10-10T02:00:07.543Z,85.58
2022-10-10T02:02:50.638Z,86.29
2022-10-10T02:05:24.174Z,85.57
2022-10-10T02:08:06.448Z,89.71
2022-10-10T02:10:32.067Z,88.37
2022-10-10T02:12:55.817Z,87.27
2022-10-10T02:15:21.525Z,86.93
2022-10-10T02:17:46.631Z,90.31
2022-10-10T02:20:10.373Z,89.21
2022-10-10T02:22:32.848Z,87.82
2022-10-10T02:24:55.186Z,87.24
2022-10-10T02:27:25.845Z,86.71
2022-10-10T02:29:49.636Z,86.45
2022-10-10T02:32:32.630Z,87.08
2022-10-10T02:34:57.680Z,87.03
2022-10-10T02:37:19.727Z,86.91
2022-10-10T02:39:44.919Z,86.71
2022-10-10T02:42:08.260Z,86.08
2022-10-10T02:44:31.045Z,86.33
2022-10-10T02:46:52.910Z,86.37
2022-10-10T02:49:14.470Z,86.10
2022-10-10T02:51:36.046Z,86.15
2022-10-10T02:53:57.647Z,86.99
2022-10-10T02:56:19.103Z,88.55
2022-10-10T02:58:40.560Z,87.79
2022-10-10T03:01:02.088Z,86.97
2022-10-10T03:03:23.676Z,86.77
2022-10-10T03:05:46.950Z,86.46
2022-10-10T03:08:11.572Z,86.70
2022-10-10T03:10:33.707Z,86.76
2022-10-10T03:12:55.178Z,87.08
2022-10-10T03:15:16.794Z,86.69
2022-10-10T03:17:38.350Z,91.29
2022-10-10T03:19:59.890Z,89.40
2022-10-10T03:22:21.489Z,88.61
2022-10-10T03:24:43.022Z,87.99
2022-10-10T03:27:04.489Z,88.01
2022-10-10T03:29:26.088Z,87.55
2022-10-10T03:31:47.592Z,87.33
2022-10-10T03:34:09.898Z,86.64
2022-10-10T03:36:31.400Z,88.78
2022-10-10T03:38:53.037Z,89.10
2022-10-10T03:41:14.742Z,88.29
2022-10-10T03:43:36.241Z,88.01
2022-10-10T03:45:57.717Z,87.46
2022-10-10T03:48:19.234Z,87.20
2022-10-10T03:50:40.698Z,86.85
2022-10-10T03:53:02.272Z,87.08
2022-10-10T03:55:23.840Z,87.49
2022-10-10T03:57:45.354Z,87.17
2022-10-10T04:00:07.436Z,88.33
2022-10-10T04:02:28.872Z,89.71
2022-10-10T04:04:50.448Z,88.93
2022-10-10T04:07:11.904Z,88.20
2022-10-10T04:09:33.392Z,88.96
2022-10-10T04:11:54.849Z,88.31
2022-10-10T04:14:16.334Z,88.20
2022-10-10T04:16:37.786Z,88.31
2022-10-10T04:18:59.269Z,88.17
2022-10-10T04:21:20.757Z,88.40
2022-10-10T04:23:42.294Z,88.03
2022-10-10T04:26:03.804Z,89.54
2022-10-10T04:28:25.414Z,89.97
2022-10-10T04:30:47.038Z,89.25
2022-10-10T04:33:09.007Z,88.79
2022-10-10T04:35:30.475Z,89.17
2022-10-10T04:37:52.418Z,88.42
2022-10-10T04:40:13.933Z,88.44
2022-10-10T04:42:35.395Z,89.98
2022-10-10T04:44:56.920Z,90.75
2022-10-10T04:47:18.383Z,90.12
2022-10-10T04:49:42.005Z,89.69
2022-10-10T04:52:03.504Z,90.77
2022-10-10T04:54:24.981Z,90.19
2022-10-10T04:56:46.501Z,89.68
2022-10-10T04:59:09.371Z,89.48
2022-10-10T05:01:31.014Z,90.02
2022-10-10T05:03:53.882Z,92.88
2022-10-10T05:06:15.337Z,91.89
2022-10-10T05:08:36.855Z,92.02
2022-10-10T05:10:58.332Z,91.06
2022-10-10T05:13:19.941Z,90.49
2022-10-10T05:15:41.701Z,91.39
2022-10-10T05:18:04.467Z,92.01
2022-10-10T05:20:25.950Z,91.04
2022-10-10T05:22:47.511Z,90.57
2022-10-10T05:25:09.152Z,90.30
2022-10-10T05:27:30.638Z,89.68
2022-10-10T05:29:52.718Z,90.22
2022-10-10T05:32:14.150Z,90.69
2022-10-10T05:34:35.696Z,90.21
2022-10-10T05:36:58.035Z,90.27
2022-10-10T05:39:19.504Z,90.64
2022-10-10T05:41:41.360Z,90.62
2022-10-10T05:44:02.827Z,90.33
2022-10-10T05:46:26.730Z,89.64
2022-10-10T05:48:48.211Z,90.97
2022-10-10T05:51:09.950Z,90.07
2022-10-10T05:53:31.481Z,90.08
2022-10-10T05:55:53.692Z,90.09
2022-10-10T05:58:15.387Z,89.72
2022-10-10T06:00:36.860Z,89.31
2022-10-10T06:02:58.482Z,89.04
2022-10-10T06:05:20.218Z,87.75
2022-10-10T06:08:03.514Z,88.15
2022-10-10T06:10:23.200Z,88.06
2022-10-10T06:12:44.726Z,88.12
2022-10-10T06:15:07.052Z,87.94
2022-10-10T06:17:28.496Z,88.34
2022-10-10T06:19:49.973Z,88.12
2022-10-10T06:22:11.425Z,87.87
2022-10-10T06:24:32.900Z,87.65
2022-10-10T06:26:54.375Z,88.08
2022-10-10T06:29:15.882Z,87.82
2022-10-10T06:31:39.599Z,87.25
2022-10-10T06:34:01.132Z,87.67
2022-10-10T06:36:22.592Z,87.92
2022-10-10T06:38:46.077Z,87.61
2022-10-10T06:41:08.216Z,89.09
2022-10-10T06:43:29.739Z,89.17
2022-10-10T06:45:51.573Z,89.01
2022-10-10T06:48:14.497Z,87.54
2022-10-10T06:50:36.660Z,87.20
2022-10-10T06:52:58.115Z,87.03
2022-10-10T06:55:19.617Z,87.26
2022-10-10T06:57:41.079Z,86.76
2022-10-10T07:00:04.046Z,86.33
2022-10-10T07:02:25.572Z,86.01
2022-10-10T07:04:47.055Z,86.41
2022-10-10T07:07:08.584Z,86.53
2022-10-10T07:09:30.075Z,86.58
2022-10-10T07:11:51.574Z,85.85
2022-10-10T07:14:14.146Z,85.61
2022-10-10T07:16:35.598Z,84.98
2022-10-10T07:18:57.079Z,84.55
2022-10-10T07:21:18.582Z,84.45
2022-10-10T07:23:40.188Z,84.03
2022-10-10T07:26:06.830Z,84.10
2022-10-10T07:28:29.125Z,84.63
2022-10-10T07:30:50.580Z,84.36
2022-10-10T07:33:13.307Z,83.76
2022-10-10T07:35:34.835Z,84.13
2022-10-10T07:37:56.455Z,83.63
2022-10-10T07:40:17.931Z,83.57
2022-10-10T07:42:39.438Z,84.38
2022-10-10T07:45:00.978Z,84.42
2022-10-10T07:47:22.513Z,83.24
2022-10-10T07:49:43.960Z,82.46
2022-10-10T07:52:05.769Z,82.50
2022-10-10T07:54:27.398Z,82.72
2022-10-10T07:56:48.884Z,84.19
2022-10-10T07:59:10.419Z,84.74
2022-10-10T08:01:31.925Z,84.28
2022-10-10T08:03:55.998Z,84.14
2022-10-10T08:06:18.163Z,84.71
2022-10-10T08:08:49.973Z,84.99
2022-10-10T08:11:12.556Z,83.79
2022-10-10T08:13:35.512Z,84.08
2022-10-10T08:15:57.007Z,82.84
2022-10-10T08:18:18.699Z,82.77
2022-10-10T08:20:40.154Z,82.98
2022-10-10T08:23:01.637Z,83.86
2022-10-10T08:25:23.329Z,83.77
2022-10-10T08:27:45.323Z,82.39
2022-10-10T08:30:07.100Z,82.79
2022-10-10T08:32:28.568Z,83.70
2022-10-10T08:34:50.621Z,82.53
2022-10-10T08:37:12.107Z,81.70
2022-10-10T08:39:33.634Z,79.93
2022-10-10T08:41:56.668Z,80.42
2022-10-10T08:44:42.679Z,80.54
2022-10-10T08:47:09.995Z,80.57
2022-10-10T08:49:36.503Z,81.13
2022-10-10T08:52:25.558Z,80.30
2022-10-10T08:54:48.417Z,81.27
2022-10-10T08:57:33.440Z,82.06
2022-10-10T08:59:59.758Z,82.44
2022-10-10T09:02:50.157Z,81.89
2022-10-10T09:05:17.751Z,81.09
2022-10-10T09:07:54.501Z,80.44
2022-10-10T09:10:32.309Z,79.61
2022-10-10T09:13:08.502Z,82.26
2022-10-10T09:15:43.229Z,84.21
2022-10-10T09:18:19.119Z,84.35
2022-10-10T09:20:52.515Z,84.32
2022-10-10T09:23:26.499Z,82.32
2022-10-10T09:26:10.835Z,80.94
2022-10-10T09:28:44.516Z,80.06
2022-10-10T09:31:15.111Z,80.51
2022-10-10T09:33:45.208Z,79.51
2022-10-10T09:36:13.894Z,78.66
2022-10-10T09:38:50.005Z,79.56
2022-10-10T09:41:23.242Z,79.27
2022-10-10T09:43:44.713Z,79.71
2022-10-10T09:46:06.600Z,80.49
2022-10-10T09:48:33.501Z,79.22
2022-10-10T09:50:55.164Z,78.27
2022-10-10T09:53:17.166Z,77.56
2022-10-10T09:55:39.433Z,76.52
2022-10-10T09:58:24.569Z,76.25
2022-10-10T10:00:46.188Z,76.31
2022-10-10T10:03:13.045Z,76.50
2022-10-10T10:05:35.284Z,75.73
2022-10-10T10:07:58.343Z,76.26
2022-10-10T10:10:26.631Z,75.68
2022-10-10T10:12:48.401Z,76.60
2022-10-10T10:15:21.844Z,76.18
2022-10-10T10:17:43.473Z,74.78
2022-10-10T10:20:31.536Z,74.23
2022-10-10T10:25:37.571Z,74.85
2022-10-10T10:28:25.529Z,72.78
2022-10-10T10:30:48.611Z,71.28
2022-10-10T10:33:27.817Z,71.99
2022-10-10T10:36:07.534Z,74.41
2022-10-10T10:39:06.729Z,72.62
2022-10-10T10:41:48.100Z,72.20
2022-10-10T10:44:21.707Z,72.45
2022-10-10T10:46:58.074Z,71.35
2022-10-10T10:49:30.119Z,67.32
2022-10-10T10:52:06.558Z,70.74
2022-10-10T10:54:55.361Z,68.39
2022-10-10T10:58:04.583Z,70.63
2022-10-10T11:01:20.889Z,68.47
2022-10-10T11:05:17.912Z,69.25
2022-10-10T11:06:39.582Z,68.74
2022-10-10T11:09:49.232Z,70.71
2022-10-10T11:12:22.627Z,71.18
2022-10-10T11:14:54.034Z,71.83
2022-10-10T11:17:24.411Z,70.36
2022-10-10T11:20:23.268Z,68.21
2022-10-10T11:23:12.616Z,71.30
2022-10-10T11:25:43.073Z,69.46
2022-10-10T11:28:11.065Z,68.15
2022-10-10T11:30:39.279Z,70.62
2022-10-10T11:33:11.027Z,68.48
2022-10-10T11:35:55.588Z,68.09
2022-10-10T11:38:27.464Z,68.43
2022-10-10T11:41:13.977Z,68.89
2022-10-10T11:44:00.964Z,68.21
2022-10-10T11:46:46.877Z,65.94
2022-10-10T11:49:17.556Z,64.33
2022-10-10T11:52:14.960Z,67.13
2022-10-10T11:54:54.199Z,67.27
2022-10-10T11:57:27.521Z,65.33
2022-10-10T11:59:53.416Z,64.61
2022-10-10T12:02:23.268Z,65.62
2022-10-10T12:04:47.669Z,67.01
2022-10-10T12:07:17.902Z,65.81
2022-10-10T12:09:45.843Z,64.95
2022-10-10T12:12:34.163Z,64.62
2022-10-10T12:15:00.620Z,63.74
2022-10-10T12:17:32.439Z,66.23
2022-10-10T12:19:54.280Z,63.22
2022-10-10T12:22:33.703Z,65.71
2022-10-10T12:25:22.756Z,64.13
2022-10-10T12:27:46.744Z,63.96
2022-10-10T12:30:08.191Z,62.47
2022-10-10T12:32:43.968Z,61.49
2022-10-10T12:35:35.486Z,61.46
2022-10-10T12:38:06.083Z,61.40
2022-10-10T12:40:27.698Z,59.94
2022-10-10T12:42:49.129Z,60.28
2022-10-10T12:45:28.939Z,59.53
2022-10-10T12:48:05.093Z,58.58
2022-10-10T12:50:29.084Z,59.67
2022-10-10T12:52:57.653Z,58.98
2022-10-10T12:55:32.334Z,58.20
2022-10-10T12:57:57.479Z,59.11
2022-10-10T13:00:27.962Z,58.62
2022-10-10T13:02:56.280Z,60.43
2022-10-10T13:05:35.074Z,57.21
2022-10-10T13:08:00.576Z,60.81
2022-10-10T13:10:25.260Z,60.57
2022-10-10T13:12:59.258Z,60.96
2022-10-10T13:15:21.309Z,60.44
2022-10-10T13:17:42.804Z,59.98
2022-10-10T13:20:05.761Z,61.42
2022-10-10T13:22:30.144Z,60.35
2022-10-10T13:24:52.395Z,62.21
2022-10-10T13:27:35.284Z,62.39
2022-10-10T13:29:57.165Z,62.09
2022-10-10T13:32:23.021Z,62.88
2022-10-10T13:34:52.298Z,62.56
2022-10-10T13:37:16.316Z,63.16
2022-10-10T13:39:38.964Z,60.97
2022-10-10T13:42:01.062Z,61.10
2022-10-10T13:44:31.911Z,61.17
2022-10-10T13:46:53.488Z,60.61
2022-10-10T13:49:30.439Z,60.94
2022-10-10T13:52:02.737Z,61.69
2022-10-10T13:54:37.359Z,63.09
2022-10-10T13:57:02.530Z,60.85
2022-10-10T13:59:24.780Z,60.30
2022-10-10T14:01:48.949Z,59.69
2022-10-10T14:04:13.453Z,60.10
2022-10-10T14:06:35.347Z,60.49
2022-10-10T14:09:06.492Z,61.40
2022-10-10T14:11:30.320Z,61.58
2022-10-10T14:13:57.681Z,59.13
2022-10-10T14:16:19.102Z,58.85
2022-10-10T14:18:40.617Z,60.96
2022-10-10T14:21:02.248Z,59.84
2022-10-10T14:23:23.916Z,57.80
2022-10-10T14:25:48.064Z,58.44
2022-10-10T14:28:20.669Z,60.96
2022-10-10T14:30:42.237Z,61.10
2022-10-10T14:33:10.793Z,59.73
2022-10-10T14:35:32.495Z,59.22
2022-10-10T14:37:54.004Z,59.11
2022-10-10T14:40:21.929Z,60.59
2022-10-10T14:42:43.397Z,59.95
2022-10-10T14:45:05.189Z,59.31
2022-10-10T14:47:26.687Z,60.37
2022-10-10T14:49:48.509Z,61.51
2022-10-10T14:52:10.107Z,61.67
2022-10-10T14:54:31.570Z,61.07
2022-10-10T14:57:07.580Z,62.29
2022-10-10T14:59:48.041Z,63.24
2022-10-10T15:02:11.074Z,62.73
2022-10-10T15:04:32.530Z,62.99
2022-10-10T15:07:12.386Z,63.25
2022-10-10T15:09:42.910Z,62.72
2022-10-10T15:12:06.743Z,63.15
2022-10-10T15:14:28.171Z,63.04
2022-10-10T15:16:49.964Z,63.60
2022-10-10T15:19:11.443Z,64.64
2022-10-10T15:21:32.912Z,63.75
2022-10-10T15:23:55.239Z,63.52
2022-10-10T15:26:16.693Z,64.00
2022-10-10T15:28:38.168Z,62.84
2022-10-10T15:31:00.653Z,64.49
2022-10-10T15:33:22.389Z,64.68
2022-10-10T15:36:07.905Z,65.49
2022-10-10T15:38:25.719Z,64.21
2022-10-10T15:40:56.799Z,65.69
2022-10-10T15:43:18.247Z,63.66
2022-10-10T15:45:55.572Z,64.01
2022-10-10T15:48:17.213Z,62.79
2022-10-10T15:50:42.330Z,62.09
2022-10-10T15:53:03.775Z,61.14
2022-10-10T15:55:25.255Z,61.09
2022-10-10T15:57:46.751Z,61.88
2022-10-10T16:00:08.623Z,61.50
2022-10-10T16:02:30.110Z,60.88
2022-10-10T16:04:51.605Z,60.27
2022-10-10T16:07:28.310Z,59.66
2022-10-10T16:09:51.483Z,60.83
2022-10-10T16:12:12.939Z,60.24
2022-10-10T16:14:34.472Z,59.39
2022-10-10T16:16:59.392Z,58.49
2022-10-10T16:19:20.927Z,58.51
2022-10-10T16:21:42.585Z,58.75
2022-10-10T16:24:04.211Z,58.96
2022-10-10T16:26:29.301Z,59.94
2022-10-10T16:28:50.818Z,59.99
2022-10-10T16:31:14.896Z,59.81
2022-10-10T16:33:38.078Z,59.80
2022-10-10T16:36:00.433Z,59.83
2022-10-10T16:38:21.999Z,60.63
2022-10-10T16:40:43.528Z,61.33
2022-10-10T16:43:05.116Z,61.70
2022-10-10T16:45:26.592Z,61.98
2022-10-10T16:47:48.105Z,61.79
2022-10-10T16:50:09.891Z,62.39
2022-10-10T16:52:33.064Z,62.18
2022-10-10T16:54:54.556Z,62.22
2022-10-10T16:57:16.346Z,62.32
2022-10-10T16:59:37.873Z,62.54
2022-10-10T17:01:59.365Z,62.92
2022-10-10T17:04:21.539Z,62.87
2022-10-10T17:06:43.324Z,63.26
2022-10-10T17:09:07.348Z,63.33
2022-10-10T17:11:28.870Z,63.42
2022-10-10T17:13:51.241Z,63.48
2022-10-10T17:16:59.970Z,63.66
2022-10-10T17:19:04.361Z,63.92
2022-10-10T17:21:25.918Z,64.07
2022-10-10T17:23:48.335Z,64.41
2022-10-10T17:26:13.030Z,64.78
2022-10-10T17:28:35.132Z,65.21
2022-10-10T17:30:56.644Z,65.32
2022-10-10T17:33:19.418Z,66.01
2022-10-10T17:35:50.880Z,66.31
2022-10-10T17:38:34.932Z,68.47
2022-10-10T17:40:58.775Z,66.36
2022-10-10T17:43:20.309Z,67.03
2022-10-10T17:45:41.792Z,67.76
2022-10-10T17:48:09.133Z,68.28
2022-10-10T17:50:30.620Z,70.65
2022-10-10T17:52:53.371Z,69.64
2022-10-10T17:55:14.928Z,69.95
2022-10-10T17:57:36.562Z,70.99
2022-10-10T17:59:58.028Z,70.78
2022-10-10T18:02:19.711Z,70.77
2022-10-10T18:04:41.675Z,71.86
2022-10-10T18:07:03.326Z,71.59
2022-10-10T18:09:24.926Z,70.93
2022-10-10T18:11:46.506Z,71.16
2022-10-10T18:14:08.016Z,70.75
2022-10-10T18:16:34.065Z,70.75
2022-10-10T18:18:55.847Z,70.50
2022-10-10T18:21:17.959Z,70.63
2022-10-10T18:23:40.269Z,70.61
2022-10-10T18:26:03.577Z,70.77
2022-10-10T18:28:25.062Z,70.84
2022-10-10T18:30:46.596Z,72.99
2022-10-10T18:33:08.108Z,71.53
2022-10-10T18:35:29.619Z,72.21
2022-10-10T18:37:51.130Z,72.40
2022-10-10T18:40:13.430Z,73.31
2022-10-10T18:42:36.030Z,72.42
2022-10-10T18:44:57.525Z,72.32
2022-10-10T18:47:21.516Z,72.45
2022-10-10T18:49:43.087Z,72.35
2022-10-10T18:52:05.102Z,73.54
2022-10-10T18:54:27.974Z,74.82
2022-10-10T18:56:49.478Z,76.80
2022-10-10T18:59:16.883Z,76.09
2022-10-10T19:01:40.327Z,76.10
2022-10-10T19:04:04.132Z,76.66
2022-10-10T19:06:26.216Z,77.97
2022-10-10T19:08:48.068Z,76.98
2022-10-10T19:11:22.302Z,79.87
2022-10-10T19:13:43.815Z,78.29
2022-10-10T19:16:07.288Z,78.40
2022-10-10T19:18:28.780Z,80.56
2022-10-10T19:20:50.311Z,82.70
2022-10-10T19:23:14.955Z,83.68
2022-10-10T19:25:44.221Z,84.14
2022-10-10T19:28:07.015Z,83.06
2022-10-10T19:30:28.548Z,82.16
2022-10-10T19:32:50.111Z,83.03
2022-10-10T19:35:11.596Z,81.62
2022-10-10T19:37:33.067Z,82.39
2022-10-10T19:39:54.707Z,81.77
2022-10-10T19:42:16.162Z,80.63
2022-10-10T19:44:37.703Z,80.65
2022-10-10T19:47:00.480Z,80.13
2022-10-10T19:49:23.160Z,81.62
2022-10-10T19:51:44.667Z,81.29
2022-10-10T19:54:06.184Z,83.82
2022-10-10T19:56:27.881Z,82.58
2022-10-10T19:58:49.417Z,82.92
2022-10-10T20:01:13.669Z,81.61
2022-10-10T20:03:35.282Z,81.31
2022-10-10T20:06:00.651Z,82.23
2022-10-10T20:08:22.316Z,81.85
2022-10-10T20:10:44.396Z,81.25
2022-10-10T20:13:06.006Z,82.04
2022-10-10T20:15:27.472Z,82.72
2022-10-10T20:17:49.015Z,84.72
2022-10-10T20:20:10.915Z,82.48
2022-10-10T20:22:33.379Z,82.29
2022-10-10T20:24:54.865Z,82.03
2022-10-10T20:27:16.401Z,81.62
2022-10-10T20:29:37.926Z,83.38
2022-10-10T20:31:59.361Z,83.03
2022-10-10T20:34:20.832Z,82.50
2022-10-10T20:36:42.400Z,81.91
2022-10-10T20:39:07.954Z,82.06
2022-10-10T20:41:32.393Z,81.88
2022-10-10T20:43:58.485Z,83.28
2022-10-10T20:46:19.935Z,82.76
2022-10-10T20:48:41.662Z,83.45
2022-10-10T20:51:14.018Z,83.52
2022-10-10T20:53:36.527Z,83.39
2022-10-10T20:55:57.978Z,85.54
2022-10-10T20:58:19.495Z,85.06
2022-10-10T21:00:44.683Z,85.75
2022-10-10T21:03:06.232Z,85.03
2022-10-10T21:05:27.689Z,84.73
2022-10-10T21:07:49.323Z,83.98
2022-10-10T21:10:10.768Z,83.56
2022-10-10T21:12:32.267Z,85.50
2022-10-10T21:14:53.816Z,84.89
2022-10-10T21:17:15.277Z,84.72
2022-10-10T21:19:36.729Z,84.66
2022-10-10T21:21:58.255Z,86.15
2022-10-10T21:24:19.701Z,85.59
2022-10-10T21:26:42.116Z,85.74
2022-10-10T21:29:04.314Z,84.43
2022-10-10T21:31:32.349Z,84.42
2022-10-10T21:33:54.602Z,84.49
2022-10-10T21:36:18.170Z,84.43
2022-10-10T21:38:39.721Z,84.69
2022-10-10T21:41:09.556Z,85.52
2022-10-10T21:43:31.011Z,85.66
2022-10-10T21:45:52.464Z,84.74
2022-10-10T21:48:14.030Z,84.78
2022-10-10T21:50:36.081Z,84.15
2022-10-10T21:52:57.737Z,83.95
2022-10-10T21:55:19.376Z,83.94
2022-10-10T21:57:40.854Z,83.69
2022-10-10T22:00:02.424Z,83.75
2022-10-10T22:02:23.962Z,83.46
2022-10-10T22:04:50.405Z,83.14
2022-10-10T22:07:11.944Z,83.77
2022-10-10T22:09:33.391Z,83.45
2022-10-10T22:11:55.143Z,83.48
2022-10-10T22:14:16.699Z,83.52
2022-10-10T22:16:38.212Z,83.44
2022-10-10T22:19:00.015Z,83.36
2022-10-10T22:21:21.759Z,83.19
2022-10-10T22:23:44.615Z,83.43
2022-10-10T22:26:12.566Z,83.14
2022-10-10T22:28:34.080Z,82.55
2022-10-10T22:30:55.581Z,83.06
2022-10-10T22:33:17.092Z,82.90
2022-10-10T22:35:38.611Z,82.94
2022-10-10T22:38:01.077Z,82.73
2022-10-10T22:40:23.378Z,82.67
2022-10-10T22:42:44.824Z,83.67
2022-10-10T22:45:06.757Z,84.33
2022-10-10T22:47:29.197Z,83.88
2022-10-10T22:49:50.654Z,83.82
2022-10-10T22:52:12.148Z,84.63
2022-10-10T22:54:33.857Z,84.07
2022-10-10T22:56:55.411Z,84.10
2022-10-10T22:59:16.888Z,84.00
2022-10-10T23:01:38.366Z,84.54
2022-10-10T23:04:03.353Z,83.81
2022-10-10T23:06:25.033Z,83.52
2022-10-10T23:08:46.514Z,83.50
2022-10-10T23:11:08.006Z,83.46
2022-10-10T23:13:30.359Z,84.31
2022-10-10T23:15:51.904Z,83.89
2022-10-10T23:18:13.392Z,83.76
2022-10-10T23:20:35.416Z,84.66
2022-10-10T23:22:56.958Z,83.97
2022-10-10T23:25:18.450Z,83.59
2022-10-10T23:27:39.892Z,83.59
2022-10-10T23:30:01.402Z,83.85
2022-10-10T23:32:25.071Z,83.83
2022-10-10T23:34:46.587Z,83.79
2022-10-10T23:37:08.305Z,84.92
2022-10-10T23:39:29.754Z,85.64
2022-10-10T23:41:51.269Z,85.92
2022-10-10T23:44:12.773Z,86.28
2022-10-10T23:46:34.306Z,85.98
2022-10-10T23:48:55.758Z,85.54
2022-10-10T23:51:17.517Z,85.81
2022-10-10T23:53:39.044Z,86.33
2022-10-10T23:56:00.582Z,86.31
2022-10-10T23:58:22.405Z,85.95
